sensor_id;sensor_type;location;lat;lon;timestamp;pressure;altitude;pressure_sealevel;temperature;humidity
59757;BME280;45631;51.962;5.974;2024-01-30T00:01:46;102472.31;;;4.86;100.00
59757;BME280;45631;51.962;5.974;2024-01-30T00:04:15;102471.47;;;4.84;100.00
59757;BME280;45631;51.962;5.974;2024-01-30T00:06:43;102471.38;;;4.90;100.00
59757;BME280;45631;51.962;5.974;2024-01-30T00:09:11;102472.16;;;4.96;100.00
59757;BME280;45631;51.962;5.974;2024-01-30T00:11:40;102468.63;;;5.00;100.00
59757;BME280;45631;51.962;5.974;2024-01-30T00:14:09;102465.09;;;5.04;100.00
59757;BME280;45631;51.962;5.974;2024-01-30T00:16:38;102477.13;;;5.13;100.00
59757;BME280;45631;51.962;5.974;2024-01-30T00:19:06;102471.81;;;5.19;100.00
59757;BME280;45631;51.962;5.974;2024-01-30T00:21:35;102474.22;;;5.30;100.00
59757;BME280;45631;51.962;5.974;2024-01-30T00:24:03;102475.72;;;5.45;100.00
59757;BME280;45631;51.962;5.974;2024-01-30T00:26:32;102474.88;;;5.44;100.00
59757;BME280;45631;51.962;5.974;2024-01-30T00:29:00;102469.63;;;5.46;100.00
59757;BME280;45631;51.962;5.974;2024-01-30T00:31:30;102472.06;;;5.53;100.00
59757;BME280;45631;51.962;5.974;2024-01-30T00:33:58;102473.78;;;5.56;100.00
59757;BME280;45631;51.962;5.974;2024-01-30T00:36:26;102465.97;;;5.54;100.00
59757;BME280;45631;51.962;5.974;2024-01-30T00:38:56;102455.50;;;5.56;100.00
59757;BME280;45631;51.962;5.974;2024-01-30T00:41:24;102463.41;;;5.51;100.00
59757;BME280;45631;51.962;5.974;2024-01-30T00:43:53;102459.97;;;5.51;100.00
59757;BME280;45631;51.962;5.974;2024-01-30T00:46:21;102463.50;;;5.48;100.00
59757;BME280;45631;51.962;5.974;2024-01-30T00:48:51;102459.19;;;5.46;100.00
59757;BME280;45631;51.962;5.974;2024-01-30T00:51:19;102460.09;;;5.43;100.00
59757;BME280;45631;51.962;5.974;2024-01-30T00:53:47;102460.19;;;5.37;100.00
59757;BME280;45631;51.962;5.974;2024-01-30T00:56:15;102458.56;;;5.31;100.00
59757;BME280;45631;51.962;5.974;2024-01-30T00:58:45;102462.97;;;5.26;100.00
59757;BME280;45631;51.962;5.974;2024-01-30T01:01:13;102461.31;;;5.22;100.00
59757;BME280;45631;51.962;5.974;2024-01-30T01:03:42;102452.72;;;5.17;100.00
59757;BME280;45631;51.962;5.974;2024-01-30T01:06:13;102459.69;;;5.15;100.00
59757;BME280;45631;51.962;5.974;2024-01-30T01:08:41;102455.31;;;5.15;100.00
59757;BME280;45631;51.962;5.974;2024-01-30T01:11:09;102466.66;;;5.16;100.00
59757;BME280;45631;51.962;5.974;2024-01-30T01:13:37;102460.50;;;5.20;100.00
59757;BME280;45631;51.962;5.974;2024-01-30T01:16:06;102461.41;;;5.17;100.00
59757;BME280;45631;51.962;5.974;2024-01-30T01:18:34;102454.47;;;5.15;100.00
59757;BME280;45631;51.962;5.974;2024-01-30T01:21:03;102456.13;;;5.20;100.00
59757;BME280;45631;51.962;5.974;2024-01-30T01:23:33;102451.66;;;5.27;100.00
59757;BME280;45631;51.962;5.974;2024-01-30T01:26:01;102453.41;;;5.27;100.00
59757;BME280;45631;51.962;5.974;2024-01-30T01:28:29;102455.31;;;5.18;100.00
59757;BME280;45631;51.962;5.974;2024-01-30T01:30:57;102447.50;;;5.17;100.00
59757;BME280;45631;51.962;5.974;2024-01-30T01:33:32;102451.00;;;5.16;100.00
59757;BME280;45631;51.962;5.974;2024-01-30T01:36:00;102451.00;;;5.16;100.00
59757;BME280;45631;51.962;5.974;2024-01-30T01:38:29;102451.84;;;5.16;100.00
59757;BME280;45631;51.962;5.974;2024-01-30T01:40:59;102452.66;;;5.20;100.00
59757;BME280;45631;51.962;5.974;2024-01-30T01:43:27;102453.50;;;5.20;100.00
59757;BME280;45631;51.962;5.974;2024-01-30T01:45:55;102449.06;;;5.27;100.00
59757;BME280;45631;51.962;5.974;2024-01-30T01:48:24;102441.16;;;5.30;100.00
59757;BME280;45631;51.962;5.974;2024-01-30T01:50:52;102440.38;;;5.27;100.00
59757;BME280;45631;51.962;5.974;2024-01-30T01:53:21;102442.91;;;5.31;100.00
59757;BME280;45631;51.962;5.974;2024-01-30T01:55:49;102441.94;;;5.35;100.00
59757;BME280;45631;51.962;5.974;2024-01-30T01:58:21;102438.41;;;5.39;100.00
59757;BME280;45631;51.962;5.974;2024-01-30T02:00:50;102440.94;;;5.44;100.00
59757;BME280;45631;51.962;5.974;2024-01-30T02:03:19;102444.38;;;5.46;100.00
59757;BME280;45631;51.962;5.974;2024-01-30T02:05:49;102432.19;;;5.45;100.00
59757;BME280;45631;51.962;5.974;2024-01-30T02:08:18;102427.84;;;5.47;100.00
59757;BME280;45631;51.962;5.974;2024-01-30T02:10:46;102420.72;;;5.55;100.00
59757;BME280;45631;51.962;5.974;2024-01-30T02:13:14;102429.38;;;5.59;100.00
59757;BME280;45631;51.962;5.974;2024-01-30T02:15:50;102422.41;;;5.58;100.00
59757;BME280;45631;51.962;5.974;2024-01-30T02:18:19;102424.84;;;5.67;100.00
59757;BME280;45631;51.962;5.974;2024-01-30T02:20:48;102424.84;;;5.66;100.00
59757;BME280;45631;51.962;5.974;2024-01-30T02:23:19;102429.09;;;5.73;100.00
59757;BME280;45631;51.962;5.974;2024-01-30T02:25:47;102433.44;;;5.72;100.00
59757;BME280;45631;51.962;5.974;2024-01-30T02:28:16;102429.91;;;5.75;100.00
59757;BME280;45631;51.962;5.974;2024-01-30T02:30:44;102427.25;;;5.78;100.00
59757;BME280;45631;51.962;5.974;2024-01-30T02:33:13;102425.50;;;5.79;100.00
59757;BME280;45631;51.962;5.974;2024-01-30T02:35:41;102420.28;;;5.79;100.00
59757;BME280;45631;51.962;5.974;2024-01-30T02:38:09;102419.44;;;5.78;100.00
59757;BME280;45631;51.962;5.974;2024-01-30T02:40:39;102414.25;;;5.75;100.00
59757;BME280;45631;51.962;5.974;2024-01-30T02:43:07;102418.66;;;5.73;100.00
59757;BME280;45631;51.962;5.974;2024-01-30T02:45:35;102414.38;;;5.69;100.00
59757;BME280;45631;51.962;5.974;2024-01-30T02:48:04;102404.84;;;5.66;100.00
59757;BME280;45631;51.962;5.974;2024-01-30T02:50:32;102402.22;;;5.68;100.00
59757;BME280;45631;51.962;5.974;2024-01-30T02:53:00;102397.84;;;5.68;100.00
59757;BME280;45631;51.962;5.974;2024-01-30T02:55:28;102407.50;;;5.65;100.00
59757;BME280;45631;51.962;5.974;2024-01-30T02:57:58;102398.03;;;5.59;100.00
59757;BME280;45631;51.962;5.974;2024-01-30T03:00:26;102402.38;;;5.58;100.00
59757;BME280;45631;51.962;5.974;2024-01-30T03:02:54;102397.25;;;5.54;100.00
59757;BME280;45631;51.962;5.974;2024-01-30T03:05:23;102396.25;;;5.61;100.00
59757;BME280;45631;51.962;5.974;2024-01-30T03:07:51;102392.91;;;5.54;100.00
59757;BME280;45631;51.962;5.974;2024-01-30T03:10:19;102399.03;;;5.52;100.00
59757;BME280;45631;51.962;5.974;2024-01-30T03:12:47;102400.63;;;5.61;100.00
59757;BME280;45631;51.962;5.974;2024-01-30T03:15:17;102401.53;;;5.58;100.00
59757;BME280;45631;51.962;5.974;2024-01-30T03:17:45;102394.66;;;5.54;100.00
59757;BME280;45631;51.962;5.974;2024-01-30T03:20:13;102392.09;;;5.49;100.00
59757;BME280;45631;51.962;5.974;2024-01-30T03:22:42;102389.41;;;5.55;100.00
59757;BME280;45631;51.962;5.974;2024-01-30T03:25:10;102385.13;;;5.51;100.00
59757;BME280;45631;51.962;5.974;2024-01-30T03:27:38;102390.38;;;5.50;100.00
59757;BME280;45631;51.962;5.974;2024-01-30T03:30:09;102386.03;;;5.49;100.00
59757;BME280;45631;51.962;5.974;2024-01-30T03:32:39;102383.44;;;5.49;100.00
59757;BME280;45631;51.962;5.974;2024-01-30T03:35:07;102376.44;;;5.49;100.00
59757;BME280;45631;51.962;5.974;2024-01-30T03:37:36;102374.75;;;5.48;100.00
59757;BME280;45631;51.962;5.974;2024-01-30T03:40:05;102367.81;;;5.47;100.00
59757;BME280;45631;51.962;5.974;2024-01-30T03:42:33;102366.88;;;5.51;100.00
59757;BME280;45631;51.962;5.974;2024-01-30T03:45:01;102368.63;;;5.49;100.00
59757;BME280;45631;51.962;5.974;2024-01-30T03:47:29;102367.75;;;5.50;100.00
59757;BME280;45631;51.962;5.974;2024-01-30T03:49:59;102368.63;;;5.49;100.00
59757;BME280;45631;51.962;5.974;2024-01-30T03:52:27;102359.94;;;5.49;100.00
59757;BME280;45631;51.962;5.974;2024-01-30T03:54:55;102359.03;;;5.51;100.00
59757;BME280;45631;51.962;5.974;2024-01-30T03:57:24;102349.34;;;5.58;100.00
59757;BME280;45631;51.962;5.974;2024-01-30T03:59:52;102356.28;;;5.57;100.00
59757;BME280;45631;51.962;5.974;2024-01-30T04:02:20;102354.56;;;5.58;100.00
59757;BME280;45631;51.962;5.974;2024-01-30T04:04:48;102350.84;;;5.68;100.00
59757;BME280;45631;51.962;5.974;2024-01-30T04:07:18;102356.94;;;5.69;100.00
59757;BME280;45631;51.962;5.974;2024-01-30T04:09:50;102352.72;;;5.62;100.00
59757;BME280;45631;51.962;5.974;2024-01-30T04:12:18;102359.66;;;5.63;100.00
59757;BME280;45631;51.962;5.974;2024-01-30T04:14:46;102361.50;;;5.57;100.00
59757;BME280;45631;51.962;5.974;2024-01-30T04:17:15;102358.94;;;5.56;100.00
59757;BME280;45631;51.962;5.974;2024-01-30T04:19:43;102364.16;;;5.56;100.00
59757;BME280;45631;51.962;5.974;2024-01-30T04:22:11;102363.25;;;5.57;100.00
59757;BME280;45631;51.962;5.974;2024-01-30T04:24:41;102360.56;;;5.62;100.00
59757;BME280;45631;51.962;5.974;2024-01-30T04:27:09;102363.81;;;5.73;100.00
59757;BME280;45631;51.962;5.974;2024-01-30T04:29:37;102356.94;;;5.69;100.00
59757;BME280;45631;51.962;5.974;2024-01-30T04:32:05;102356.88;;;5.72;100.00
59757;BME280;45631;51.962;5.974;2024-01-30T04:34:34;102357.78;;;5.69;100.00
59757;BME280;45631;51.962;5.974;2024-01-30T04:37:02;102352.56;;;5.69;100.00
59757;BME280;45631;51.962;5.974;2024-01-30T04:39:32;102359.50;;;5.72;100.00
59757;BME280;45631;51.962;5.974;2024-01-30T04:42:02;102364.78;;;5.69;100.00
59757;BME280;45631;51.962;5.974;2024-01-30T04:44:35;102358.78;;;5.64;100.00
59757;BME280;45631;51.962;5.974;2024-01-30T04:47:03;102351.88;;;5.61;100.00
59757;BME280;45631;51.962;5.974;2024-01-30T04:49:32;102352.72;;;5.62;100.00
59757;BME280;45631;51.962;5.974;2024-01-30T04:52:01;102344.88;;;5.62;100.00
59757;BME280;45631;51.962;5.974;2024-01-30T04:54:29;102341.44;;;5.61;100.00
59757;BME280;45631;51.962;5.974;2024-01-30T04:56:57;102340.53;;;5.62;100.00
59757;BME280;45631;51.962;5.974;2024-01-30T04:59:27;102338.84;;;5.59;100.00
59757;BME280;45631;51.962;5.974;2024-01-30T05:01:55;102345.00;;;5.57;100.00
59757;BME280;45631;51.962;5.974;2024-01-30T05:04:23;102342.41;;;5.55;100.00
59757;BME280;45631;51.962;5.974;2024-01-30T05:06:51;102334.63;;;5.54;100.00
59757;BME280;45631;51.962;5.974;2024-01-30T05:09:20;102338.09;;;5.54;100.00
59757;BME280;45631;51.962;5.974;2024-01-30T05:11:49;102335.41;;;5.59;100.00
59757;BME280;45631;51.962;5.974;2024-01-30T05:14:17;102330.03;;;5.65;100.00
59757;BME280;45631;51.962;5.974;2024-01-30T05:16:46;102330.84;;;5.69;100.00
59757;BME280;45631;51.962;5.974;2024-01-30T05:19:15;102328.22;;;5.69;100.00
59757;BME280;45631;51.962;5.974;2024-01-30T05:21:44;102324.69;;;5.70;100.00
59757;BME280;45631;51.962;5.974;2024-01-30T05:24:12;102328.09;;;5.75;100.00
59757;BME280;45631;51.962;5.974;2024-01-30T05:26:40;102325.53;;;5.72;100.00
59757;BME280;45631;51.962;5.974;2024-01-30T05:29:08;102322.97;;;5.70;100.00
59757;BME280;45631;51.962;5.974;2024-01-30T05:31:37;102329.03;;;5.71;100.00
59757;BME280;45631;51.962;5.974;2024-01-30T05:34:06;102327.31;;;5.71;100.00
59757;BME280;45631;51.962;5.974;2024-01-30T05:36:36;102333.41;;;5.70;100.00
59757;BME280;45631;51.962;5.974;2024-01-30T05:39:04;102331.69;;;5.69;100.00
59757;BME280;45631;51.962;5.974;2024-01-30T05:41:35;102332.59;;;5.67;100.00
59757;BME280;45631;51.962;5.974;2024-01-30T05:44:06;102338.72;;;5.66;100.00
59757;BME280;45631;51.962;5.974;2024-01-30T05:46:35;102341.31;;;5.66;100.00
59757;BME280;45631;51.962;5.974;2024-01-30T05:49:03;102339.63;;;5.65;100.00
59757;BME280;45631;51.962;5.974;2024-01-30T05:51:34;102341.31;;;5.66;100.00
59757;BME280;45631;51.962;5.974;2024-01-30T05:54:02;102334.31;;;5.69;100.00
59757;BME280;45631;51.962;5.974;2024-01-30T05:56:31;102331.66;;;5.71;100.00
59757;BME280;45631;51.962;5.974;2024-01-30T05:58:59;102322.91;;;5.73;100.00
59757;BME280;45631;51.962;5.974;2024-01-30T06:01:27;102324.66;;;5.73;100.00
59757;BME280;45631;51.962;5.974;2024-01-30T06:03:56;102322.66;;;5.84;100.00
59757;BME280;45631;51.962;5.974;2024-01-30T06:06:24;102326.13;;;5.85;100.00
59757;BME280;45631;51.962;5.974;2024-01-30T06:08:56;102326.13;;;5.86;100.00
59757;BME280;45631;51.962;5.974;2024-01-30T06:11:24;102326.94;;;5.88;100.00
59757;BME280;45631;51.962;5.974;2024-01-30T06:13:52;102333.13;;;5.84;100.00
59757;BME280;45631;51.962;5.974;2024-01-30T06:16:21;102335.81;;;5.81;100.00
59757;BME280;45631;51.962;5.974;2024-01-30T06:18:49;102338.50;;;5.78;100.00
59757;BME280;45631;51.962;5.974;2024-01-30T06:21:18;102341.13;;;5.75;100.00
59757;BME280;45631;51.962;5.974;2024-01-30T06:23:46;102341.22;;;5.72;100.00
59757;BME280;45631;51.962;5.974;2024-01-30T06:26:16;102335.19;;;5.68;100.00
59757;BME280;45631;51.962;5.974;2024-01-30T06:28:44;102332.59;;;5.67;100.00
59757;BME280;45631;51.962;5.974;2024-01-30T06:31:12;102328.19;;;5.70;100.00
59757;BME280;45631;51.962;5.974;2024-01-30T06:33:40;102336.94;;;5.68;100.00
59757;BME280;45631;51.962;5.974;2024-01-30T06:36:10;102335.25;;;5.65;100.00
59757;BME280;45631;51.962;5.974;2024-01-30T06:38:38;102336.19;;;5.63;100.00
59757;BME280;45631;51.962;5.974;2024-01-30T06:41:06;102332.72;;;5.62;100.00
59757;BME280;45631;51.962;5.974;2024-01-30T06:43:36;102345.69;;;5.65;100.00
59757;BME280;45631;51.962;5.974;2024-01-30T06:46:04;102340.50;;;5.64;100.00
59757;BME280;45631;51.962;5.974;2024-01-30T06:48:32;102342.28;;;5.63;100.00
59757;BME280;45631;51.962;5.974;2024-01-30T06:51:00;102342.31;;;5.60;100.00
59757;BME280;45631;51.962;5.974;2024-01-30T06:53:28;102340.59;;;5.61;100.00
59757;BME280;45631;51.962;5.974;2024-01-30T06:55:56;102346.69;;;5.59;100.00
59757;BME280;45631;51.962;5.974;2024-01-30T06:58:24;102341.53;;;5.56;100.00
59757;BME280;45631;51.962;5.974;2024-01-30T07:00:54;102340.63;;;5.57;100.00
59757;BME280;45631;51.962;5.974;2024-01-30T07:03:23;102330.22;;;5.56;100.00
59757;BME280;45631;51.962;5.974;2024-01-30T07:05:51;102339.88;;;5.52;100.00
59757;BME280;45631;51.962;5.974;2024-01-30T07:08:19;102336.38;;;5.52;100.00
59757;BME280;45631;51.962;5.974;2024-01-30T07:10:47;102338.19;;;5.50;100.00
59757;BME280;45631;51.962;5.974;2024-01-30T07:13:15;102342.56;;;5.48;100.00
59757;BME280;45631;51.962;5.974;2024-01-30T07:15:44;102344.31;;;5.47;100.00
59757;BME280;45631;51.962;5.974;2024-01-30T07:18:14;102351.28;;;5.47;100.00
59757;BME280;45631;51.962;5.974;2024-01-30T07:20:42;102359.97;;;5.47;100.00
59757;BME280;45631;51.962;5.974;2024-01-30T07:23:13;102359.88;;;5.52;100.00
59757;BME280;45631;51.962;5.974;2024-01-30T07:25:43;102355.47;;;5.55;100.00
59757;BME280;45631;51.962;5.974;2024-01-30T07:28:14;102354.50;;;5.59;100.00
59757;BME280;45631;51.962;5.974;2024-01-30T07:30:44;102363.09;;;5.66;100.00
59757;BME280;45631;51.962;5.974;2024-01-30T07:33:14;102357.88;;;5.66;100.00
59757;BME280;45631;51.962;5.974;2024-01-30T07:35:42;102368.25;;;5.69;100.00
59757;BME280;45631;51.962;5.974;2024-01-30T07:38:10;102370.81;;;5.71;100.00
59757;BME280;45631;51.962;5.974;2024-01-30T07:40:39;102368.09;;;5.77;100.00
59757;BME280;45631;51.962;5.974;2024-01-30T07:43:07;102379.16;;;5.88;100.00
59757;BME280;45631;51.962;5.974;2024-01-30T07:45:36;102372.78;;;6.03;100.00
59757;BME280;45631;51.962;5.974;2024-01-30T07:48:05;102368.38;;;6.07;100.00
59757;BME280;45631;51.962;5.974;2024-01-30T07:50:35;102365.31;;;6.25;100.00
59757;BME280;45631;51.962;5.974;2024-01-30T07:53:03;102362.44;;;6.38;100.00
59757;BME280;45631;51.962;5.974;2024-01-30T07:55:31;102363.94;;;6.48;100.00
59757;BME280;45631;51.962;5.974;2024-01-30T07:58:00;102372.50;;;6.55;100.00
59757;BME280;45631;51.962;5.974;2024-01-30T08:00:47;102378.44;;;6.62;100.00
59757;BME280;45631;51.962;5.974;2024-01-30T08:03:15;102384.56;;;6.60;100.00
59757;BME280;45631;51.962;5.974;2024-01-30T08:05:46;102391.47;;;6.63;100.00
59757;BME280;45631;51.962;5.974;2024-01-30T08:08:14;102388.81;;;6.65;100.00
59757;BME280;45631;51.962;5.974;2024-01-30T08:10:42;102394.81;;;6.70;100.00
59757;BME280;45631;51.962;5.974;2024-01-30T08:13:10;102394.81;;;6.70;100.00
59757;BME280;45631;51.962;5.974;2024-01-30T08:15:38;102393.78;;;6.75;100.00
59757;BME280;45631;51.962;5.974;2024-01-30T08:18:09;102401.56;;;6.79;100.00
59757;BME280;45631;51.962;5.974;2024-01-30T08:20:37;102391.00;;;6.83;100.00
59757;BME280;45631;51.962;5.974;2024-01-30T08:23:07;102404.78;;;6.88;100.00
59757;BME280;45631;51.962;5.974;2024-01-30T08:25:35;102395.97;;;6.94;100.00
59757;BME280;45631;51.962;5.974;2024-01-30T08:28:03;102403.66;;;7.00;100.00
59757;BME280;45631;51.962;5.974;2024-01-30T08:30:32;102403.47;;;7.08;100.00
59757;BME280;45631;51.962;5.974;2024-01-30T08:33:02;102402.47;;;7.12;100.00
59757;BME280;45631;51.962;5.974;2024-01-30T08:35:30;102405.84;;;7.16;100.00
59757;BME280;45631;51.962;5.974;2024-01-30T08:38:00;102405.75;;;7.20;100.00
59757;BME280;45631;51.962;5.974;2024-01-30T08:40:31;102407.31;;;7.27;100.00
59757;BME280;45631;51.962;5.974;2024-01-30T08:43:00;102398.47;;;7.32;100.00
59757;BME280;45631;51.962;5.974;2024-01-30T08:45:28;102399.22;;;7.37;100.00
59757;BME280;45631;51.962;5.974;2024-01-30T08:47:57;102405.19;;;7.42;100.00
59757;BME280;45631;51.962;5.974;2024-01-30T08:50:25;102403.13;;;7.53;100.00
59757;BME280;45631;51.962;5.974;2024-01-30T08:52:54;102401.34;;;7.54;100.00
59757;BME280;45631;51.962;5.974;2024-01-30T08:55:24;102402.97;;;7.59;100.00
59757;BME280;45631;51.962;5.974;2024-01-30T08:57:54;102403.81;;;7.60;100.00
59757;BME280;45631;51.962;5.974;2024-01-30T09:00:22;102408.06;;;7.64;100.00
59757;BME280;45631;51.962;5.974;2024-01-30T09:02:50;102402.63;;;7.72;100.00
59757;BME280;45631;51.962;5.974;2024-01-30T09:05:19;102413.09;;;7.72;100.00
59757;BME280;45631;51.962;5.974;2024-01-30T09:07:47;102406.94;;;7.74;100.00
59757;BME280;45631;51.962;5.974;2024-01-30T09:10:15;102411.97;;;7.81;100.00
59757;BME280;45631;51.962;5.974;2024-01-30T09:12:47;102404.81;;;7.87;100.00
59757;BME280;45631;51.962;5.974;2024-01-30T09:15:17;102397.72;;;7.91;100.00
59757;BME280;45631;51.962;5.974;2024-01-30T09:17:47;102410.56;;;7.99;100.00
59757;BME280;45631;51.962;5.974;2024-01-30T09:20:15;102414.81;;;8.03;100.00
59757;BME280;45631;51.962;5.974;2024-01-30T09:22:43;102405.22;;;8.03;100.00
59757;BME280;45631;51.962;5.974;2024-01-30T09:25:12;102408.69;;;8.04;100.00
59757;BME280;45631;51.962;5.974;2024-01-30T09:27:40;102413.88;;;8.05;100.00
59757;BME280;45631;51.962;5.974;2024-01-30T09:30:08;102417.28;;;8.09;100.00
59757;BME280;45631;51.962;5.974;2024-01-30T09:32:39;102416.19;;;8.16;100.00
59757;BME280;45631;51.962;5.974;2024-01-30T09:35:08;102412.66;;;8.17;100.00
59757;BME280;45631;51.962;5.974;2024-01-30T09:37:36;102416.09;;;8.19;100.00
59757;BME280;45631;51.962;5.974;2024-01-30T09:40:06;102419.47;;;8.23;100.00
59757;BME280;45631;51.962;5.974;2024-01-30T09:42:35;102408.81;;;8.29;100.00
59757;BME280;45631;51.962;5.974;2024-01-30T09:45:05;102410.44;;;8.33;100.00
59757;BME280;45631;51.962;5.974;2024-01-30T09:47:39;102419.09;;;8.35;100.00
59757;BME280;45631;51.962;5.974;2024-01-30T09:50:09;102416.34;;;8.40;100.00
59757;BME280;45631;51.962;5.974;2024-01-30T09:52:38;102425.06;;;8.40;100.00
59757;BME280;45631;51.962;5.974;2024-01-30T09:55:07;102425.03;;;8.42;100.00
59757;BME280;45631;51.962;5.974;2024-01-30T09:57:35;102430.13;;;8.48;100.00
59757;BME280;45631;51.962;5.974;2024-01-30T10:00:05;102424.81;;;8.50;100.00
59757;BME280;45631;51.962;5.974;2024-01-30T10:02:35;102428.19;;;8.53;100.00
59757;BME280;45631;51.962;5.974;2024-01-30T10:05:05;102430.75;;;8.56;100.00
59757;BME280;45631;51.962;5.974;2024-01-30T10:07:34;102430.63;;;8.59;100.00
59757;BME280;45631;51.962;5.974;2024-01-30T10:10:02;102434.97;;;8.60;100.00
59757;BME280;45631;51.962;5.974;2024-01-30T10:12:31;102436.66;;;8.63;100.00
59757;BME280;45631;51.962;5.974;2024-01-30T10:14:59;102442.50;;;8.71;100.00
59757;BME280;45631;51.962;5.974;2024-01-30T10:17:27;102438.00;;;8.75;100.00
59757;BME280;45631;51.962;5.974;2024-01-30T10:20:00;102441.25;;;8.83;100.00
59757;BME280;45631;51.962;5.974;2024-01-30T10:22:30;102435.69;;;8.92;100.00
59757;BME280;45631;51.962;5.974;2024-01-30T10:24:58;102439.81;;;9.00;100.00
59757;BME280;45631;51.962;5.974;2024-01-30T10:27:32;102443.94;;;9.08;100.00
59757;BME280;45631;51.962;5.974;2024-01-30T10:30:00;102439.28;;;9.17;100.00
59757;BME280;45631;51.962;5.974;2024-01-30T10:32:31;102450.56;;;9.19;100.00
59757;BME280;45631;51.962;5.974;2024-01-30T10:34:59;102449.56;;;9.23;100.00
59757;BME280;45631;51.962;5.974;2024-01-30T10:37:31;102440.84;;;9.22;100.00
59757;BME280;45631;51.962;5.974;2024-01-30T10:40:02;102439.88;;;9.25;100.00
59757;BME280;45631;51.962;5.974;2024-01-30T10:42:33;102441.53;;;9.27;100.00
59757;BME280;45631;51.962;5.974;2024-01-30T10:45:07;102439.72;;;9.29;100.00
59757;BME280;45631;51.962;5.974;2024-01-30T10:47:36;102436.06;;;9.34;100.00
59757;BME280;45631;51.962;5.974;2024-01-30T10:50:05;102431.75;;;9.33;100.00
59757;BME280;45631;51.962;5.974;2024-01-30T10:52:37;102442.19;;;9.34;100.00
59757;BME280;45631;51.962;5.974;2024-01-30T10:55:07;102443.94;;;9.34;100.00
59757;BME280;45631;51.962;5.974;2024-01-30T10:57:36;102445.59;;;9.36;100.00
59757;BME280;45631;51.962;5.974;2024-01-30T11:00:07;102451.75;;;9.37;100.00
59757;BME280;45631;51.962;5.974;2024-01-30T11:02:39;102447.22;;;9.40;100.00
59757;BME280;45631;51.962;5.974;2024-01-30T11:05:08;102442.59;;;9.47;100.00
59757;BME280;45631;51.962;5.974;2024-01-30T11:07:39;102439.88;;;9.50;100.00
59757;BME280;45631;51.962;5.974;2024-01-30T11:10:07;102443.13;;;9.57;100.00
59757;BME280;45631;51.962;5.974;2024-01-30T11:12:40;102447.38;;;9.61;100.00
59757;BME280;45631;51.962;5.974;2024-01-30T11:15:13;102439.41;;;9.64;100.00
59757;BME280;45631;51.962;5.974;2024-01-30T11:17:51;102434.78;;;9.71;100.00
59757;BME280;45631;51.962;5.974;2024-01-30T11:20:21;102433.69;;;9.76;100.00
59757;BME280;45631;51.962;5.974;2024-01-30T11:22:52;102436.16;;;9.81;100.00
59757;BME280;45631;51.962;5.974;2024-01-30T11:25:21;102443.06;;;9.84;100.00
59757;BME280;45631;51.962;5.974;2024-01-30T11:27:51;102438.59;;;9.86;100.00
59757;BME280;45631;51.962;5.974;2024-01-30T11:30:24;102439.22;;;9.92;100.00
59757;BME280;45631;51.962;5.974;2024-01-30T11:33:00;102442.56;;;9.97;100.00
59757;BME280;45631;51.962;5.974;2024-01-30T11:35:33;102437.88;;;10.06;100.00
59757;BME280;45631;51.962;5.974;2024-01-30T11:38:03;102433.91;;;10.18;100.00
59757;BME280;45631;51.962;5.974;2024-01-30T11:40:33;102433.84;;;10.19;100.00
59757;BME280;45631;51.962;5.974;2024-01-30T11:43:03;102431.16;;;10.21;100.00
59757;BME280;45631;51.962;5.974;2024-01-30T11:45:33;102431.91;;;10.24;100.00
59757;BME280;45631;51.962;5.974;2024-01-30T11:48:01;102429.97;;;10.29;100.00
59757;BME280;45631;51.962;5.974;2024-01-30T11:50:32;102433.13;;;10.39;100.00
59757;BME280;45631;51.962;5.974;2024-01-30T11:53:04;102438.19;;;10.44;100.00
59757;BME280;45631;51.962;5.974;2024-01-30T11:55:33;102436.25;;;10.49;100.00
59757;BME280;45631;51.962;5.974;2024-01-30T11:58:03;102436.81;;;10.57;100.00
59757;BME280;45631;51.962;5.974;2024-01-30T12:00:32;102444.63;;;10.59;100.00
59757;BME280;45631;51.962;5.974;2024-01-30T12:03:02;102441.94;;;10.60;100.00
59757;BME280;45631;51.962;5.974;2024-01-30T12:05:32;102442.81;;;10.61;100.00
59757;BME280;45631;51.962;5.974;2024-01-30T12:08:00;102441.84;;;10.63;100.00
59757;BME280;45631;51.962;5.974;2024-01-30T12:10:30;102443.53;;;10.64;100.00
59757;BME280;45631;51.962;5.974;2024-01-30T12:13:00;102451.41;;;10.64;100.00
59757;BME280;45631;51.962;5.974;2024-01-30T12:15:29;102448.69;;;10.68;100.00
59757;BME280;45631;51.962;5.974;2024-01-30T12:18:04;102444.34;;;10.67;100.00
59757;BME280;45631;51.962;5.974;2024-01-30T12:20:33;102450.44;;;10.67;100.00
59757;BME280;45631;51.962;5.974;2024-01-30T12:23:02;102442.47;;;10.69;100.00
59757;BME280;45631;51.962;5.974;2024-01-30T12:25:32;102443.34;;;10.69;100.00
59757;BME280;45631;51.962;5.974;2024-01-30T12:28:00;102445.91;;;10.71;100.00
59757;BME280;45631;51.962;5.974;2024-01-30T12:30:29;102446.59;;;10.76;100.00
59757;BME280;45631;51.962;5.974;2024-01-30T12:32:57;102457.13;;;10.76;100.00
59757;BME280;45631;51.962;5.974;2024-01-30T12:35:26;102450.91;;;10.77;100.00
59757;BME280;45631;51.962;5.974;2024-01-30T12:37:57;102456.03;;;10.81;100.00
59757;BME280;45631;51.962;5.974;2024-01-30T12:40:26;102459.56;;;10.80;100.00
59757;BME280;45631;51.962;5.974;2024-01-30T12:42:56;102463.16;;;10.78;100.00
59757;BME280;45631;51.962;5.974;2024-01-30T12:45:25;102470.22;;;10.77;100.00
59757;BME280;45631;51.962;5.974;2024-01-30T12:47:53;102463.09;;;10.79;100.00
59757;BME280;45631;51.962;5.974;2024-01-30T12:50:22;102465.81;;;10.78;100.00
59757;BME280;45631;51.962;5.974;2024-01-30T12:52:50;102484.97;;;10.81;100.00
59757;BME280;45631;51.962;5.974;2024-01-30T12:55:18;102486.72;;;10.81;100.00
59757;BME280;45631;51.962;5.974;2024-01-30T12:57:47;102498.47;;;10.72;100.00